Time;durP1;ratioP1;P1;durP2;ratioP2;P2;SDS_P1;SDS_P2;PMS_P1;PMS_P2;Temp;Humidity;BMP_temperature;BMP_pressure;BME280_temperature;BME280_humidity;BME280_pressure;Samples;Min_cycle;Max_cycle;Signal;HPM_P1;HPM_P2
2023/05/12 00:01:28;;;;;;;9.18;3.17;;;11.30;99.90;;;;;;4984984;28;20043;-79
2023/05/12 00:03:54;;;;;;;3.55;2.20;;;11.20;99.90;;;;;;4966811;28;20057;-78
2023/05/12 00:06:20;;;;;;;4.10;1.92;;;11.20;99.90;;;;;;4984540;28;20435;-79
2023/05/12 00:08:46;;;;;;;4.57;2.45;;;11.20;99.90;;;;;;4984130;28;20204;-78
2023/05/12 00:11:11;;;;;;;2.90;2.58;;;11.20;99.90;;;;;;4993212;28;20457;-79
2023/05/12 00:13:37;;;;;;;3.97;2.28;;;11.20;99.90;;;;;;5001758;28;20050;-79
2023/05/12 00:16:03;;;;;;;2.38;1.20;;;11.20;99.90;;;;;;5003401;28;20580;-79
2023/05/12 00:18:28;;;;;;;2.90;1.00;;;11.20;99.90;;;;;;5004837;28;20045;-79
2023/05/12 00:20:55;;;;;;;11.88;2.53;;;11.10;99.90;;;;;;5004570;28;20522;-79
2023/05/12 00:23:21;;;;;;;3.30;1.60;;;11.10;99.90;;;;;;5005733;28;20491;-79
2023/05/12 00:25:47;;;;;;;1.92;1.00;;;11.10;99.90;;;;;;5004878;28;20034;-78
2023/05/12 00:28:13;;;;;;;3.85;2.65;;;11.10;99.90;;;;;;5004518;28;20129;-80
2023/05/12 00:30:38;;;;;;;4.25;1.80;;;11.10;99.90;;;;;;5004820;28;20322;-78
2023/05/12 00:33:04;;;;;;;3.22;1.83;;;11.10;99.90;;;;;;5004299;28;20046;-80
2023/05/12 00:35:30;;;;;;;2.38;1.40;;;11.10;99.90;;;;;;5003720;28;20512;-79
2023/05/12 00:37:55;;;;;;;5.57;1.80;;;11.10;99.90;;;;;;5004224;28;20049;-79
2023/05/12 00:40:21;;;;;;;2.60;1.00;;;11.10;99.90;;;;;;5004791;28;20517;-79
2023/05/12 00:42:46;;;;;;;2.35;1.75;;;11.10;99.90;;;;;;5004460;28;20038;-79
2023/05/12 00:45:12;;;;;;;2.38;1.48;;;11.10;99.90;;;;;;4985120;28;20504;-78
2023/05/12 00:47:38;;;;;;;2.38;1.35;;;11.10;99.90;;;;;;4983620;28;20042;-80
2023/05/12 00:50:05;;;;;;;3.88;2.00;;;11.10;99.90;;;;;;4984080;28;20046;-80
2023/05/12 00:52:30;;;;;;;2.70;1.52;;;11.10;99.90;;;;;;4964783;28;20047;-80
2023/05/12 00:54:57;;;;;;;3.50;1.63;;;11.10;99.90;;;;;;4969720;28;20050;-80
2023/05/12 00:57:24;;;;;;;3.95;2.13;;;11.10;99.90;;;;;;4985435;28;20046;-79
2023/05/12 00:59:50;;;;;;;3.65;2.25;;;11.10;99.90;;;;;;4986577;28;20066;-79
2023/05/12 01:02:16;;;;;;;4.35;2.15;;;11.10;99.90;;;;;;4985698;28;20065;-79
2023/05/12 01:04:42;;;;;;;3.33;2.40;;;11.10;99.90;;;;;;4984788;28;20085;-79
2023/05/12 01:07:30;;;;;;;6.93;3.08;;;11.10;99.90;;;;;;4979618;28;20517;-79
2023/05/12 01:09:56;;;;;;;10.15;2.83;;;11.10;99.90;;;;;;4984200;28;20050;-78
2023/05/12 01:12:23;;;;;;;5.50;2.90;;;11.20;99.90;;;;;;4987394;28;20089;-77
2023/05/12 01:14:50;;;;;;;6.88;2.55;;;11.20;99.90;;;;;;4985770;28;20042;-79
2023/05/12 01:17:19;;;;;;;6.18;2.95;;;11.10;99.90;;;;;;4986006;28;20054;-78
2023/05/12 01:19:58;;;;;;;4.55;3.00;;;11.20;99.90;;;;;;4968862;28;20042;-79
2023/05/12 01:22:27;;;;;;;9.45;3.78;;;11.10;99.90;;;;;;4986571;28;20050;-78
2023/05/12 01:24:56;;;;;;;4.80;3.00;;;11.10;99.90;;;;;;4986233;28;20053;-78
2023/05/12 01:27:24;;;;;;;6.75;3.08;;;11.10;99.90;;;;;;4984078;28;20077;-79
2023/05/12 01:29:51;;;;;;;20.52;3.70;;;11.10;99.90;;;;;;4984248;28;20136;-78
2023/05/12 01:32:17;;;;;;;9.07;3.92;;;11.10;99.90;;;;;;4967650;28;20046;-78
2023/05/12 01:34:43;;;;;;;5.65;3.47;;;11.10;99.90;;;;;;4985499;28;20159;-78
2023/05/12 01:37:10;;;;;;;6.40;2.95;;;11.10;99.90;;;;;;4985948;28;20117;-78
2023/05/12 01:39:36;;;;;;;7.78;2.97;;;11.10;99.90;;;;;;4983979;28;20049;-78
2023/05/12 01:42:04;;;;;;;6.28;3.00;;;11.10;99.90;;;;;;4985534;28;20528;-78
2023/05/12 01:44:30;;;;;;;9.32;4.80;;;11.10;99.90;;;;;;4984691;28;20085;-79
2023/05/12 01:46:56;;;;;;;8.55;4.13;;;11.10;99.90;;;;;;4968046;28;20042;-79
2023/05/12 01:49:22;;;;;;;16.35;5.47;;;11.10;99.90;;;;;;4985051;28;20050;-78
2023/05/12 01:51:47;;;;;;;7.32;3.88;;;11.10;99.90;;;;;;4983945;28;20050;-78
2023/05/12 01:54:13;;;;;;;13.90;4.75;;;11.10;99.90;;;;;;4968295;28;20134;-78
2023/05/12 01:56:39;;;;;;;14.98;5.90;;;11.10;99.90;;;;;;4984522;28;20417;-78
2023/05/12 01:59:05;;;;;;;12.75;5.18;;;11.10;99.90;;;;;;4984266;28;20061;-78
2023/05/12 02:01:31;;;;;;;14.40;5.15;;;11.10;99.90;;;;;;4985234;28;20042;-79
2023/05/12 02:03:58;;;;;;;10.13;4.78;;;11.10;99.90;;;;;;4983778;28;20047;-78
2023/05/12 02:06:24;;;;;;;14.18;5.68;;;11.10;99.90;;;;;;4985672;28;20046;-79
2023/05/12 02:08:49;;;;;;;14.85;5.90;;;11.10;99.90;;;;;;4985018;28;20050;-78
2023/05/12 02:11:15;;;;;;;9.52;4.32;;;11.10;99.90;;;;;;4995297;28;20062;-78
2023/05/12 02:13:43;;;;;;;10.40;4.57;;;11.10;99.90;;;;;;5001639;28;20050;-78
2023/05/12 02:16:09;;;;;;;12.43;5.90;;;11.10;99.90;;;;;;5003655;28;20038;-78
2023/05/12 02:18:35;;;;;;;12.35;5.80;;;11.10;99.90;;;;;;4997341;28;20045;-78
2023/05/12 02:21:01;;;;;;;11.75;5.18;;;11.10;99.90;;;;;;4983652;28;20042;-78
2023/05/12 02:23:26;;;;;;;10.15;5.40;;;11.10;99.90;;;;;;4966757;28;20516;-79
2023/05/12 02:25:52;;;;;;;15.27;6.10;;;11.10;99.90;;;;;;5000325;28;20529;-78
2023/05/12 02:28:18;;;;;;;17.98;7.03;;;11.10;99.90;;;;;;4982227;28;20117;-79
2023/05/12 02:30:45;;;;;;;11.23;5.05;;;11.10;99.90;;;;;;4983386;28;20649;-78
2023/05/12 02:33:11;;;;;;;11.15;5.20;;;11.10;99.90;;;;;;4984788;28;20038;-79
2023/05/12 02:35:37;;;;;;;11.93;5.63;;;11.10;99.90;;;;;;4999233;28;20149;-78
2023/05/12 02:38:03;;;;;;;9.70;4.43;;;11.10;99.90;;;;;;4985116;28;20046;-78
2023/05/12 02:40:29;;;;;;;12.35;6.68;;;11.20;99.90;;;;;;4983941;28;20042;-79
2023/05/12 02:42:55;;;;;;;11.60;4.88;;;11.10;99.90;;;;;;4982436;28;20129;-78
2023/05/12 02:45:21;;;;;;;16.30;7.07;;;11.10;99.90;;;;;;4983288;28;20596;-78
2023/05/12 02:47:47;;;;;;;11.68;5.60;;;11.20;99.90;;;;;;4984442;28;20648;-78
2023/05/12 02:50:13;;;;;;;12.88;5.95;;;11.20;99.90;;;;;;4983274;28;20061;-78
2023/05/12 02:52:38;;;;;;;14.48;6.47;;;11.20;99.90;;;;;;4983927;28;20038;-78
2023/05/12 02:55:04;;;;;;;14.07;5.45;;;11.10;99.90;;;;;;4984434;28;20069;-79
2023/05/12 02:57:33;;;;;;;13.38;5.97;;;11.20;99.90;;;;;;4981384;28;20054;-77
2023/05/12 03:00:00;;;;;;;12.60;6.65;;;11.20;99.90;;;;;;4983246;28;20053;-78
2023/05/12 03:02:25;;;;;;;14.23;6.28;;;11.20;99.90;;;;;;4982614;28;20489;-79
2023/05/12 03:04:51;;;;;;;18.75;6.35;;;11.20;99.90;;;;;;4984514;28;20043;-78
2023/05/12 03:07:17;;;;;;;23.83;7.40;;;11.20;99.90;;;;;;4983789;28;20477;-79
2023/05/12 03:09:42;;;;;;;22.02;6.85;;;11.20;99.90;;;;;;4998907;28;20076;-78
2023/05/12 03:12:08;;;;;;;22.77;8.82;;;11.30;99.90;;;;;;5000918;28;20053;-79
2023/05/12 03:14:34;;;;;;;27.85;9.35;;;11.20;99.90;;;;;;5003440;28;20115;-78
2023/05/12 03:16:59;;;;;;;23.63;9.93;;;11.30;99.90;;;;;;5002420;28;20064;-79
2023/05/12 03:19:28;;;;;;;23.20;8.40;;;11.20;99.90;;;;;;5000371;28;20050;-78
2023/05/12 03:21:54;;;;;;;19.48;7.57;;;11.30;99.90;;;;;;4983512;28;20038;-79
2023/05/12 03:24:20;;;;;;;19.92;8.10;;;11.30;99.90;;;;;;4983359;28;20437;-79
2023/05/12 03:26:46;;;;;;;28.00;9.18;;;11.30;99.90;;;;;;4982240;28;20094;-78
2023/05/12 03:29:12;;;;;;;26.83;10.02;;;11.30;99.90;;;;;;4983046;28;20097;-79
2023/05/12 03:31:38;;;;;;;24.55;9.57;;;11.30;99.90;;;;;;4983570;28;20042;-79
2023/05/12 03:34:03;;;;;;;18.50;8.00;;;11.30;99.90;;;;;;4983086;28;20093;-79
2023/05/12 03:36:29;;;;;;;24.05;9.70;;;11.40;99.90;;;;;;4983593;28;20093;-78
2023/05/12 03:38:55;;;;;;;26.83;10.40;;;11.40;99.90;;;;;;4983980;28;20078;-79
2023/05/12 03:41:20;;;;;;;25.10;7.82;;;11.40;99.90;;;;;;4983844;28;20607;-78
2023/05/12 03:43:46;;;;;;;23.25;10.10;;;11.40;99.90;;;;;;4983046;28;20113;-79
2023/05/12 03:46:12;;;;;;;29.33;11.15;;;11.40;99.90;;;;;;4983270;28;20456;-78
2023/05/12 03:48:38;;;;;;;26.60;11.48;;;11.40;99.90;;;;;;4983531;28;20046;-79
2023/05/12 03:51:03;;;;;;;25.08;10.82;;;11.40;99.90;;;;;;4982248;28;20543;-79
2023/05/12 03:53:29;;;;;;;32.78;13.20;;;11.40;99.90;;;;;;4982425;28;20038;-78
2023/05/12 03:55:54;;;;;;;26.15;10.00;;;11.40;99.90;;;;;;4983573;28;20038;-79
2023/05/12 03:58:22;;;;;;;33.42;10.00;;;11.50;99.90;;;;;;4981578;28;20054;-78
2023/05/12 04:00:49;;;;;;;27.73;9.93;;;11.40;99.90;;;;;;4983373;28;20053;-79
2023/05/12 04:03:15;;;;;;;27.20;9.75;;;11.40;99.90;;;;;;4983205;28;20046;-78
2023/05/12 04:05:41;;;;;;;25.75;10.25;;;11.50;99.90;;;;;;4983756;28;20043;-78
2023/05/12 04:08:07;;;;;;;24.90;9.05;;;11.40;99.90;;;;;;4965764;28;20133;-78
2023/05/12 04:10:38;;;;;;;30.10;9.20;;;11.50;99.90;;;;;;4987240;28;20057;-78
2023/05/12 04:13:04;;;;;;;28.95;10.88;;;11.50;99.90;;;;;;5000486;28;20069;-79
2023/05/12 04:15:29;;;;;;;30.50;9.63;;;11.60;99.90;;;;;;5002920;28;20500;-78
2023/05/12 04:17:55;;;;;;;24.40;12.57;;;11.50;99.90;;;;;;5003725;28;20455;-79
2023/05/12 04:20:21;;;;;;;27.88;11.63;;;11.50;99.90;;;;;;4990409;28;20038;-78
2023/05/12 04:22:46;;;;;;;31.15;10.30;;;11.50;99.90;;;;;;4981509;28;20165;-79
2023/05/12 04:25:12;;;;;;;27.63;11.40;;;11.50;99.90;;;;;;4983163;28;20069;-78
2023/05/12 04:27:38;;;;;;;22.13;10.52;;;11.50;99.90;;;;;;4982524;28;20050;-79
2023/05/12 04:30:03;;;;;;;25.05;9.20;;;11.50;99.90;;;;;;4980131;28;20046;-78
2023/05/12 04:32:29;;;;;;;27.95;9.98;;;11.60;99.90;;;;;;4979922;28;20038;-80
2023/05/12 04:34:55;;;;;;;27.23;10.32;;;11.60;99.90;;;;;;4998115;28;20532;-80
2023/05/12 04:37:21;;;;;;;28.58;9.77;;;11.60;99.90;;;;;;4985088;28;20050;-79
2023/05/12 04:39:47;;;;;;;25.08;10.57;;;11.60;99.90;;;;;;4985356;28;20052;-79
2023/05/12 04:42:12;;;;;;;28.58;11.18;;;11.60;99.90;;;;;;4969095;28;20043;-78
2023/05/12 04:44:38;;;;;;;22.95;9.73;;;11.60;99.90;;;;;;4986010;28;20053;-79
2023/05/12 04:47:04;;;;;;;28.10;9.93;;;11.70;99.90;;;;;;4986918;28;20700;-78
2023/05/12 04:49:29;;;;;;;20.88;9.07;;;11.70;99.90;;;;;;4985225;28;20053;-79
2023/05/12 04:51:55;;;;;;;25.83;9.82;;;11.70;99.90;;;;;;4998119;28;20450;-78
2023/05/12 04:54:21;;;;;;;24.95;10.85;;;11.70;99.90;;;;;;4966151;28;20050;-78
2023/05/12 04:56:46;;;;;;;27.95;9.90;;;11.70;99.90;;;;;;4965990;28;20394;-78
2023/05/12 04:59:14;;;;;;;22.27;10.65;;;11.70;99.90;;;;;;4974800;28;20053;-79
2023/05/12 05:01:41;;;;;;;26.85;10.60;;;11.70;99.90;;;;;;4986182;28;20065;-78
2023/05/12 05:04:07;;;;;;;28.83;10.60;;;11.80;99.90;;;;;;4985237;28;20046;-79
2023/05/12 05:06:33;;;;;;;34.03;9.93;;;11.80;99.90;;;;;;4985733;28;20046;-80
2023/05/12 05:08:59;;;;;;;29.02;10.40;;;11.80;99.90;;;;;;4986422;28;20125;-79
2023/05/12 05:11:25;;;;;;;28.20;9.10;;;11.80;99.90;;;;;;4986867;28;20562;-79
2023/05/12 05:13:50;;;;;;;31.30;10.82;;;11.80;99.90;;;;;;4985543;28;20075;-79
2023/05/12 05:16:16;;;;;;;31.17;10.63;;;11.90;99.90;;;;;;4984689;28;20042;-79
2023/05/12 05:18:45;;;;;;;27.63;11.50;;;11.80;99.90;;;;;;4985795;28;20444;-79
2023/05/12 05:21:12;;;;;;;35.78;10.38;;;11.90;99.90;;;;;;4988726;28;20117;-80
2023/05/12 05:23:38;;;;;;;37.70;12.40;;;11.90;99.90;;;;;;4989974;28;20047;-81
2023/05/12 05:26:04;;;;;;;28.17;9.48;;;11.90;99.90;;;;;;4985986;28;20159;-80
2023/05/12 05:28:30;;;;;;;27.88;10.15;;;12.00;99.90;;;;;;4984651;28;20038;-81
2023/05/12 05:30:55;;;;;;;29.00;10.90;;;12.00;99.90;;;;;;4968701;28;20077;-80
2023/05/12 05:33:21;;;;;;;36.58;11.70;;;12.00;99.90;;;;;;4985297;28;20652;-80
2023/05/12 05:35:47;;;;;;;37.75;11.60;;;12.00;99.90;;;;;;4985681;28;20046;-80
2023/05/12 05:38:12;;;;;;;31.05;10.63;;;12.00;99.90;;;;;;4985164;28;20054;-81
2023/05/12 05:40:38;;;;;;;39.10;12.43;;;12.10;99.90;;;;;;4991221;28;20053;-81
2023/05/12 05:43:04;;;;;;;32.00;10.70;;;12.10;99.90;;;;;;4984791;28;20049;-80
2023/05/12 05:45:30;;;;;;;32.45;11.30;;;12.10;99.90;;;;;;4966869;28;20058;-80
2023/05/12 05:47:55;;;;;;;24.08;11.25;;;12.20;99.90;;;;;;4984688;28;20513;-82
2023/05/12 05:50:21;;;;;;;37.40;11.40;;;12.20;99.90;;;;;;4983893;28;20136;-81
2023/05/12 05:52:46;;;;;;;26.17;11.10;;;12.20;99.90;;;;;;4984407;28;20046;-80
2023/05/12 05:55:12;;;;;;;30.80;11.63;;;12.30;99.90;;;;;;4967967;28;20099;-80
2023/05/12 05:57:38;;;;;;;31.02;12.38;;;12.20;99.90;;;;;;4983379;28;20047;-80
2023/05/12 06:00:05;;;;;;;33.28;11.82;;;12.30;99.90;;;;;;4984838;28;20098;-80
2023/05/12 06:02:32;;;;;;;36.67;11.68;;;12.30;99.90;;;;;;4985132;28;20511;-80
2023/05/12 06:04:58;;;;;;;29.92;12.07;;;12.40;99.90;;;;;;4984990;28;20053;-80
2023/05/12 06:07:24;;;;;;;35.08;10.00;;;12.40;99.90;;;;;;4985305;28;20040;-80
2023/05/12 06:09:52;;;;;;;30.40;12.18;;;12.40;99.90;;;;;;4983951;28;20051;-79
2023/05/12 06:12:18;;;;;;;30.77;9.48;;;12.40;99.90;;;;;;4995927;28;20042;-80
2023/05/12 06:14:44;;;;;;;35.50;11.38;;;12.50;99.90;;;;;;4985229;28;20413;-80
2023/05/12 06:17:09;;;;;;;32.75;12.98;;;12.50;99.90;;;;;;4983273;28;20050;-79
2023/05/12 06:19:35;;;;;;;29.65;10.20;;;12.60;99.90;;;;;;4983919;28;20505;-79
2023/05/12 06:22:01;;;;;;;33.22;10.88;;;12.60;99.90;;;;;;4983701;28;20038;-77
2023/05/12 06:24:26;;;;;;;41.35;12.55;;;12.60;99.90;;;;;;4966212;28;20042;-79
2023/05/12 06:26:52;;;;;;;25.05;11.90;;;12.70;99.90;;;;;;4983945;28;20497;-80
2023/05/12 06:29:18;;;;;;;33.40;11.95;;;12.70;99.90;;;;;;4982223;28;20050;-80
2023/05/12 06:31:44;;;;;;;28.52;10.57;;;12.70;99.90;;;;;;4982435;28;20404;-79
2023/05/12 06:34:09;;;;;;;29.05;12.23;;;12.80;99.90;;;;;;4984071;28;20042;-80
2023/05/12 06:36:35;;;;;;;30.48;10.32;;;12.90;99.90;;;;;;4982371;28;20061;-79
2023/05/12 06:39:01;;;;;;;25.67;10.25;;;12.90;99.90;;;;;;4984564;28;20046;-79
2023/05/12 06:41:26;;;;;;;27.45;10.68;;;12.90;99.90;;;;;;4980745;28;20376;-81
2023/05/12 06:43:52;;;;;;;37.13;12.15;;;12.90;99.90;;;;;;4981812;28;20090;-80
2023/05/12 06:46:18;;;;;;;30.70;11.48;;;13.00;99.90;;;;;;4980914;28;20050;-81
2023/05/12 06:48:43;;;;;;;31.75;11.55;;;13.00;99.90;;;;;;4981878;28;20480;-81
2023/05/12 06:51:09;;;;;;;23.05;9.93;;;13.10;99.90;;;;;;4983744;28;20037;-79
2023/05/12 06:53:36;;;;;;;33.17;12.57;;;13.10;99.90;;;;;;4981381;28;20039;-81
2023/05/12 06:56:05;;;;;;;31.30;11.35;;;13.10;99.90;;;;;;4982300;28;20046;-81
2023/05/12 06:58:31;;;;;;;26.60;11.18;;;13.20;99.90;;;;;;4979450;28;20117;-82
2023/05/12 07:00:57;;;;;;;27.73;10.20;;;13.10;99.90;;;;;;4982248;28;20125;-80
2023/05/12 07:03:22;;;;;;;26.55;10.02;;;13.20;99.90;;;;;;4982353;28;20106;-82
2023/05/12 07:05:48;;;;;;;31.10;10.77;;;13.20;99.90;;;;;;4965863;28;20084;-81
2023/05/12 07:08:14;;;;;;;23.50;10.95;;;13.30;99.90;;;;;;4982620;28;20039;-81
2023/05/12 07:10:40;;;;;;;28.35;10.23;;;13.30;99.90;;;;;;4987671;28;20042;-81
2023/05/12 07:13:06;;;;;;;25.17;11.13;;;13.30;99.90;;;;;;4981152;28;20042;-81
2023/05/12 07:15:31;;;;;;;25.33;9.43;;;13.30;99.90;;;;;;4982273;28;20042;-81
2023/05/12 07:17:57;;;;;;;24.52;10.82;;;13.40;99.90;;;;;;4988171;28;20465;-80
2023/05/12 07:20:23;;;;;;;18.10;8.23;;;13.40;99.90;;;;;;4980355;28;20077;-81
2023/05/12 07:22:50;;;;;;;28.10;11.82;;;13.50;99.90;;;;;;4998233;28;20073;-80
2023/05/12 07:25:16;;;;;;;22.20;10.98;;;13.40;99.90;;;;;;4981710;28;20526;-91
2023/05/12 07:27:42;;;;;;;24.88;10.77;;;13.50;99.90;;;;;;4975976;28;20031;-82
2023/05/12 07:30:08;;;;;;;28.02;9.80;;;13.60;99.90;;;;;;4963877;28;20049;-79
2023/05/12 07:32:33;;;;;;;29.95;11.63;;;13.60;99.90;;;;;;4961410;28;20401;-83
2023/05/12 07:34:59;;;;;;;28.02;10.52;;;13.70;99.90;;;;;;4983526;28;20042;-81
2023/05/12 07:37:25;;;;;;;30.25;10.10;;;13.70;99.90;;;;;;4982719;28;20162;-82
2023/05/12 07:39:51;;;;;;;25.38;9.60;;;13.80;99.90;;;;;;4981803;28;20045;-82
2023/05/12 07:42:16;;;;;;;25.52;10.23;;;13.90;99.90;;;;;;4980713;28;20038;-82
2023/05/12 07:44:42;;;;;;;23.35;9.52;;;13.90;99.90;;;;;;4982038;28;20046;-81
2023/05/12 07:47:08;;;;;;;24.58;10.13;;;14.00;99.90;;;;;;4962926;28;20026;-79
2023/05/12 07:49:34;;;;;;;18.00;9.52;;;14.00;99.90;;;;;;4980280;28;20050;-79
2023/05/12 07:51:59;;;;;;;22.67;10.20;;;14.00;99.90;;;;;;4987188;28;20195;-78
2023/05/12 07:54:25;;;;;;;27.52;11.38;;;14.10;99.90;;;;;;4964792;28;20054;-81
2023/05/12 07:56:51;;;;;;;29.65;9.88;;;14.20;99.90;;;;;;4980548;28;20065;-80
2023/05/12 07:59:16;;;;;;;22.85;9.95;;;14.20;99.90;;;;;;4987519;28;20046;-79
2023/05/12 08:01:42;;;;;;;24.58;9.05;;;14.30;99.90;;;;;;4980700;28;20070;-79
2023/05/12 08:04:08;;;;;;;27.58;10.55;;;14.30;99.90;;;;;;4981002;28;20050;-78
2023/05/12 08:06:33;;;;;;;26.45;11.13;;;14.30;99.90;;;;;;4985103;28;20459;-83
2023/05/12 08:08:59;;;;;;;17.80;9.43;;;14.40;99.90;;;;;;4983005;28;20050;-81
2023/05/12 08:11:25;;;;;;;22.10;10.45;;;14.40;99.90;;;;;;4990003;28;20077;-79
2023/05/12 08:13:51;;;;;;;23.08;11.38;;;14.50;99.90;;;;;;4985408;28;20097;-80
2023/05/12 08:16:17;;;;;;;21.83;9.35;;;14.60;99.90;;;;;;4985887;28;20049;-79
2023/05/12 08:18:43;;;;;;;20.92;9.73;;;14.60;99.90;;;;;;4994348;28;20046;-80
2023/05/12 08:21:09;;;;;;;22.30;11.30;;;14.60;99.90;;;;;;4980625;28;20135;-83
2023/05/12 08:23:36;;;;;;;30.50;12.88;;;14.70;99.90;;;;;;4984770;28;20033;-81
2023/05/12 08:26:03;;;;;;;21.52;10.77;;;14.80;99.90;;;;;;4985587;28;20058;-83
2023/05/12 08:28:29;;;;;;;22.40;11.00;;;14.80;99.90;;;;;;4985490;28;20436;-81
2023/05/12 08:30:55;;;;;;;19.08;9.23;;;14.80;99.90;;;;;;4987267;28;20039;-82
2023/05/12 08:33:20;;;;;;;24.10;10.93;;;14.80;99.90;;;;;;4985957;28;20405;-83
2023/05/12 08:35:46;;;;;;;24.48;11.88;;;14.90;99.90;;;;;;4985508;28;20117;-82
2023/05/12 08:38:12;;;;;;;23.13;10.73;;;15.00;99.90;;;;;;4986291;28;20504;-83
2023/05/12 08:40:59;;;;;;;19.05;9.77;;;15.00;99.90;;;;;;4986533;28;20042;-83
2023/05/12 08:43:36;;;;;;;26.17;11.95;;;15.10;99.90;;;;;;4988190;28;20529;-82
2023/05/12 08:46:03;;;;;;;29.73;13.40;;;15.20;99.90;;;;;;4995330;28;20042;-83
2023/05/12 08:48:32;;;;;;;23.55;11.43;;;15.20;99.90;;;;;;4985356;28;20042;-79
2023/05/12 08:50:59;;;;;;;21.88;10.18;;;15.30;99.90;;;;;;4984865;28;20108;-79
2023/05/12 08:53:27;;;;;;;22.48;11.35;;;15.30;99.90;;;;;;4986381;28;20050;-78
2023/05/12 08:55:55;;;;;;;25.13;13.30;;;15.40;99.90;;;;;;4986404;28;20049;-78
2023/05/12 08:58:21;;;;;;;21.67;9.68;;;15.50;99.90;;;;;;4983534;28;20265;-78
2023/05/12 09:00:47;;;;;;;25.08;12.25;;;15.60;99.90;;;;;;4994167;28;20121;-78
2023/05/12 09:03:13;;;;;;;24.05;11.80;;;15.60;99.90;;;;;;4993259;28;20065;-79
2023/05/12 09:05:39;;;;;;;24.30;11.70;;;15.70;99.90;;;;;;4985563;28;20424;-79
2023/05/12 09:08:05;;;;;;;25.30;11.45;;;15.80;99.90;;;;;;4991546;28;20165;-79
2023/05/12 09:10:31;;;;;;;18.88;10.80;;;15.80;99.90;;;;;;4987634;28;20037;-79
2023/05/12 09:13:07;;;;;;;17.88;10.80;;;15.90;99.90;;;;;;5001764;28;20050;-80
2023/05/12 09:15:37;;;;;;;23.42;12.35;;;15.90;99.90;;;;;;5001915;28;20050;-79
2023/05/12 09:18:03;;;;;;;22.77;11.23;;;16.00;99.90;;;;;;4986825;28;20058;-79
2023/05/12 09:20:29;;;;;;;21.02;11.25;;;16.00;99.90;;;;;;4991636;28;20238;-79
2023/05/12 09:22:57;;;;;;;19.88;10.77;;;16.10;99.90;;;;;;4984358;28;20046;-79
2023/05/12 09:25:22;;;;;;;24.95;11.38;;;16.20;99.90;;;;;;4984535;28;20050;-79
2023/05/12 09:27:53;;;;;;;18.77;12.05;;;16.30;99.90;;;;;;4983023;28;20042;-79
2023/05/12 09:30:29;;;;;;;18.60;9.75;;;16.30;99.90;;;;;;4983964;28;20046;-79
2023/05/12 09:33:12;;;;;;;18.20;10.40;;;16.40;99.90;;;;;;4970685;28;20062;-79
2023/05/12 09:35:40;;;;;;;18.17;10.13;;;16.40;99.90;;;;;;4979713;28;20034;-79
2023/05/12 09:38:09;;;;;;;17.05;9.77;;;16.50;99.90;;;;;;4970843;28;20046;-79
2023/05/12 09:40:35;;;;;;;15.70;9.95;;;16.60;99.90;;;;;;4984011;28;20057;-79
2023/05/12 09:43:06;;;;;;;14.30;9.32;;;16.60;99.90;;;;;;4990693;28;20038;-79
2023/05/12 09:45:38;;;;;;;16.70;9.88;;;16.60;99.90;;;;;;4983327;28;20444;-79
2023/05/12 09:48:11;;;;;;;18.35;10.30;;;16.70;99.90;;;;;;4988601;28;20035;-79
2023/05/12 09:50:48;;;;;;;18.95;10.02;;;16.70;99.90;;;;;;4982930;28;20042;-79
2023/05/12 09:53:16;;;;;;;15.63;8.98;;;16.70;99.90;;;;;;4984936;28;20050;-80
2023/05/12 09:55:48;;;;;;;15.60;9.48;;;16.80;99.90;;;;;;4984608;28;20039;-79
2023/05/12 09:58:19;;;;;;;19.15;10.60;;;16.80;99.90;;;;;;4983077;28;20045;-79
2023/05/12 10:00:46;;;;;;;17.55;10.00;;;16.90;99.90;;;;;;4966982;28;20576;-79
2023/05/12 10:03:16;;;;;;;18.05;8.43;;;16.90;99.90;;;;;;4983678;28;20050;-79
2023/05/12 10:06:05;;;;;;;15.88;8.95;;;16.90;99.90;;;;;;4983953;28;20042;-79
2023/05/12 10:08:44;;;;;;;17.25;7.57;;;17.10;99.90;;;;;;4983501;28;20121;-79
2023/05/12 10:11:10;;;;;;;14.00;7.85;;;17.10;99.90;;;;;;4994134;28;20041;-79
2023/05/12 10:13:36;;;;;;;14.50;8.13;;;17.20;99.90;;;;;;4987318;28;20042;-78
2023/05/12 10:16:03;;;;;;;16.77;8.90;;;17.20;99.90;;;;;;4970219;28;20042;-79
2023/05/12 10:18:32;;;;;;;14.02;7.80;;;17.20;99.90;;;;;;4982931;28;20450;-79
2023/05/12 10:20:59;;;;;;;17.00;9.90;;;17.20;99.90;;;;;;4982355;28;20050;-79
2023/05/12 10:23:26;;;;;;;12.48;7.53;;;17.30;99.90;;;;;;4984803;28;20042;-79
2023/05/12 10:25:53;;;;;;;16.10;7.25;;;17.30;99.90;;;;;;4983968;28;20043;-79
2023/05/12 10:28:19;;;;;;;12.90;7.45;;;17.30;99.90;;;;;;4966352;28;20085;-79
2023/05/12 10:30:47;;;;;;;12.27;7.03;;;17.30;99.90;;;;;;4983149;28;20070;-79
2023/05/12 10:33:14;;;;;;;13.43;7.68;;;17.40;99.90;;;;;;4983938;28;20088;-79
2023/05/12 10:35:42;;;;;;;14.30;8.07;;;17.40;99.90;;;;;;4966325;28;20049;-79
2023/05/12 10:38:10;;;;;;;13.05;8.60;;;17.40;99.90;;;;;;4984499;28;20050;-80
2023/05/12 10:40:36;;;;;;;15.60;8.05;;;17.50;99.90;;;;;;4984292;28;20042;-80
2023/05/12 10:43:03;;;;;;;13.25;7.28;;;17.50;99.90;;;;;;4989711;28;20050;-79
2023/05/12 10:45:34;;;;;;;13.00;7.95;;;17.50;99.90;;;;;;4983692;28;20111;-80
2023/05/12 10:48:05;;;;;;;10.32;7.45;;;17.60;99.90;;;;;;4982840;28;20027;-79
2023/05/12 10:50:32;;;;;;;13.82;7.28;;;17.60;99.90;;;;;;4997623;28;20042;-79
2023/05/12 10:52:58;;;;;;;9.65;6.47;;;17.60;99.90;;;;;;4983136;28;20046;-80
2023/05/12 10:55:34;;;;;;;11.75;6.45;;;17.60;99.90;;;;;;4985055;28;20599;-80
2023/05/12 10:58:05;;;;;;;19.92;8.30;;;17.70;99.90;;;;;;4982362;28;20142;-79
2023/05/12 11:00:41;;;;;;;12.37;7.67;;;17.70;99.90;;;;;;4982654;28;20053;-79
2023/05/12 11:03:12;;;;;;;13.70;8.60;;;17.80;99.90;;;;;;4989812;28;20108;-79
2023/05/12 11:05:37;;;;;;;14.02;7.93;;;17.90;99.90;;;;;;4983865;28;20436;-79
2023/05/12 11:08:04;;;;;;;11.88;8.20;;;18.00;99.90;;;;;;4983606;28;20050;-79
2023/05/12 11:10:29;;;;;;;11.38;7.90;;;18.00;99.90;;;;;;4988141;28;20049;-78
2023/05/12 11:12:55;;;;;;;14.52;7.93;;;18.10;99.90;;;;;;4982886;28;20054;-78
2023/05/12 11:15:21;;;;;;;15.50;8.65;;;18.10;99.90;;;;;;4979620;28;20050;-78
2023/05/12 11:17:47;;;;;;;16.75;9.45;;;18.10;99.90;;;;;;4973630;28;20060;-78
2023/05/12 11:20:23;;;;;;;16.77;9.77;;;18.10;99.90;;;;;;4967002;28;20038;-78
2023/05/12 11:22:49;;;;;;;16.15;9.77;;;18.20;99.90;;;;;;4964789;28;20047;-78
2023/05/12 11:25:15;;;;;;;16.95;9.38;;;18.20;99.90;;;;;;4965378;28;20042;-78
2023/05/12 11:27:48;;;;;;;15.02;8.65;;;18.20;99.90;;;;;;4980779;28;20250;-78
2023/05/12 11:30:14;;;;;;;14.07;8.63;;;18.20;99.90;;;;;;4982845;28;20042;-78
2023/05/12 11:32:41;;;;;;;13.73;8.70;;;18.20;99.90;;;;;;4989308;28;20030;-78
2023/05/12 11:35:14;;;;;;;14.30;8.93;;;18.20;99.90;;;;;;4987323;28;20052;-76
2023/05/12 11:37:42;;;;;;;13.70;8.85;;;18.20;99.90;;;;;;4986225;28;20384;-79
2023/05/12 11:40:21;;;;;;;12.02;7.65;;;18.10;99.90;;;;;;4988265;28;20046;-78
2023/05/12 11:42:50;;;;;;;15.98;8.23;;;18.10;99.90;;;;;;4981873;28;20042;-78
2023/05/12 11:45:20;;;;;;;12.30;7.60;;;18.10;99.90;;;;;;4981922;28;20046;-78
2023/05/12 11:47:46;;;;;;;12.48;8.27;;;18.20;99.90;;;;;;4983979;28;20065;-78
2023/05/12 11:50:11;;;;;;;15.93;9.48;;;18.20;99.90;;;;;;4986546;28;20038;-78
2023/05/12 11:52:38;;;;;;;14.63;7.50;;;18.20;99.90;;;;;;4985444;28;20049;-78
2023/05/12 11:55:05;;;;;;;11.10;6.75;;;18.20;99.90;;;;;;5001405;28;20057;-77
2023/05/12 11:57:36;;;;;;;12.75;7.28;;;18.30;99.90;;;;;;4985258;28;20389;-78
2023/05/12 12:00:07;;;;;;;10.38;6.70;;;18.30;99.90;;;;;;4985772;28;20050;-78
2023/05/12 12:02:35;;;;;;;9.90;6.47;;;18.30;99.90;;;;;;4987076;28;20057;-77
2023/05/12 12:05:01;;;;;;;9.75;5.95;;;18.30;99.90;;;;;;4985280;28;20087;-78
2023/05/12 12:07:35;;;;;;;12.55;7.07;;;18.30;99.90;;;;;;4986154;28;20038;-78
2023/05/12 12:10:11;;;;;;;9.27;6.60;;;18.40;99.90;;;;;;4991413;28;20062;-78
2023/05/12 12:12:36;;;;;;;10.00;6.20;;;18.50;99.90;;;;;;5005640;28;20050;-78
2023/05/12 12:15:02;;;;;;;13.85;7.25;;;18.50;99.90;;;;;;4995125;28;20054;-78
2023/05/12 12:17:30;;;;;;;8.48;6.05;;;18.60;99.90;;;;;;4985536;28;20462;-78
2023/05/12 12:19:56;;;;;;;11.90;6.25;;;18.50;99.90;;;;;;4987229;28;20042;-78
2023/05/12 12:22:22;;;;;;;8.65;6.40;;;18.60;99.90;;;;;;4985782;28;20046;-78
2023/05/12 12:24:47;;;;;;;12.95;6.07;;;18.60;99.90;;;;;;4969269;28;20101;-78
2023/05/12 12:27:13;;;;;;;11.70;6.32;;;18.60;99.90;;;;;;4985758;28;20042;-78
2023/05/12 12:29:39;;;;;;;9.25;6.15;;;18.70;99.90;;;;;;4986779;28;20400;-78
2023/05/12 12:32:04;;;;;;;12.55;7.85;;;18.70;99.90;;;;;;4985129;28;20051;-78
2023/05/12 12:34:30;;;;;;;8.18;6.57;;;18.70;99.90;;;;;;4986479;28;20433;-78